Time;durP1;ratioP1;P1;durP2;ratioP2;P2;SDS_P1;SDS_P2;PMS_P1;PMS_P2;Temp;Humidity;BMP_temperature;BMP_pressure;BME280_temperature;BME280_humidity;BME280_pressure;Samples;Min_cycle;Max_cycle;Signal;HPM_P1;HPM_P2
2022/01/22 00:00:31;;;;;;;9.87;8.93;;;4.00;45.50;;;;;;6286844;28;20318;-56
2022/01/22 00:03:34;;;;;;;9.83;9.03;;;4.20;45.60;;;;;;6283119;28;20236;-56
2022/01/22 00:06:37;;;;;;;9.27;8.53;;;3.90;46.10;;;;;;6288497;28;20264;-55
2022/01/22 00:09:48;;;;;;;9.60;8.80;;;3.90;45.30;;;;;;6287949;28;20278;-56
2022/01/22 00:14:23;;;;;;;8.00;7.40;;;4.30;45.70;;;;;;6296694;28;20352;-55
2022/01/22 00:16:29;;;;;;;8.77;8.17;;;4.10;45.40;;;;;;6282446;28;20245;-55
2022/01/22 00:19:38;;;;;;;9.10;8.40;;;4.30;45.60;;;;;;6287252;28;20245;-56
2022/01/22 00:22:42;;;;;;;9.07;8.37;;;4.40;45.70;;;;;;6285715;28;20339;-56
2022/01/22 00:25:46;;;;;;;9.00;8.30;;;4.20;45.70;;;;;;6293523;28;20374;-56
2022/01/22 00:28:49;;;;;;;9.23;8.57;;;4.20;45.50;;;;;;6281654;28;20233;-56
2022/01/22 00:31:51;;;;;;;9.43;8.73;;;4.40;45.70;;;;;;6290180;28;20312;-56
2022/01/22 00:34:54;;;;;;;8.77;8.17;;;4.10;45.50;;;;;;6288635;28;20310;-55
2022/01/22 00:37:59;;;;;;;8.80;8.20;;;4.30;45.70;;;;;;6286753;28;20271;-55
2022/01/22 00:41:09;;;;;;;8.53;7.83;;;4.50;45.90;;;;;;6277224;28;20349;-55
2022/01/22 00:44:12;;;;;;;8.60;7.90;;;4.60;45.80;;;;;;6286232;28;20245;-55
2022/01/22 00:47:15;;;;;;;9.87;9.07;;;4.30;45.70;;;;;;6279899;28;20337;-55
2022/01/22 00:50:20;;;;;;;10.17;9.27;;;4.50;45.90;;;;;;6283950;28;20257;-56
2022/01/22 00:53:23;;;;;;;9.87;9.07;;;4.40;45.90;;;;;;6286525;28;20338;-56
2022/01/22 00:56:27;;;;;;;10.27;9.27;;;4.60;45.90;;;;;;6293970;28;20314;-54
2022/01/22 00:59:30;;;;;;;9.93;9.03;;;4.40;45.80;;;;;;6287308;28;20317;-55
2022/01/22 01:02:33;;;;;;;10.40;9.47;;;4.60;46.00;;;;;;6285374;28;20237;-55
2022/01/22 01:05:36;;;;;;;10.07;9.27;;;4.60;46.00;;;;;;6290442;28;20271;-56
2022/01/22 01:08:40;;;;;;;10.20;9.23;;;4.40;45.70;;;;;;6293136;28;20311;-56
2022/01/22 01:11:48;;;;;;;11.53;10.43;;;4.80;46.00;;;;;;6286105;28;20276;-57
2022/01/22 01:15:06;;;;;;;10.60;9.63;;;4.50;46.00;;;;;;6278114;28;20376;-55
2022/01/22 01:35:06;;;;;;;8.53;7.83;;;4.50;45.30;;;;;;6294797;28;20276;-56
2022/01/22 01:38:09;;;;;;;8.13;7.53;;;4.30;45.50;;;;;;6292215;28;20234;-56
2022/01/22 01:41:20;;;;;;;7.93;7.43;;;4.60;45.10;;;;;;6291482;28;20754;-56
2022/01/22 01:44:25;;;;;;;8.30;7.70;;;4.40;45.20;;;;;;6298297;28;20233;-54
2022/01/22 01:47:28;;;;;;;7.60;7.10;;;4.60;45.30;;;;;;6292112;28;20394;-55
2022/01/22 01:50:31;;;;;;;7.63;7.17;;;4.50;45.00;;;;;;6286344;28;20278;-55
2022/01/22 01:53:43;;;;;;;7.97;7.47;;;4.70;44.90;;;;;;6295738;28;20670;-54
2022/01/22 02:00:16;;;;;;;8.13;7.63;;;4.50;44.50;;;;;;6284300;28;20233;-56
2022/01/22 02:03:19;;;;;;;8.13;7.37;;;4.40;44.30;;;;;;6284518;28;20237;-55
2022/01/22 02:06:21;;;;;;;8.00;7.50;;;4.60;44.50;;;;;;6294271;28;20238;-56
2022/01/22 02:09:24;;;;;;;8.40;7.70;;;4.60;44.40;;;;;;6297454;28;20612;-55
2022/01/22 02:12:48;;;;;;;7.97;7.47;;;4.40;44.10;;;;;;6279095;28;20323;-55
2022/01/22 02:26:00;;;;;;;7.77;7.27;;;4.40;44.00;;;;;;6294613;28;20225;-56
2022/01/22 02:29:04;;;;;;;8.53;7.83;;;4.70;44.00;;;;;;6284354;28;20298;-56
2022/01/22 02:32:35;;;;;;;8.83;8.03;;;4.40;43.70;;;;;;6288069;28;20833;-56
2022/01/22 02:35:38;;;;;;;8.60;7.87;;;4.60;45.10;;;;;;6280812;28;20253;-56
2022/01/22 02:38:50;;;;;;;9.03;8.33;;;4.70;44.00;;;;;;6280361;28;20296;-56
2022/01/22 02:41:53;;;;;;;8.27;7.57;;;4.50;43.90;;;;;;6285708;28;20608;-55
2022/01/22 02:44:55;;;;;;;8.13;7.50;;;4.40;43.70;;;;;;6292406;28;20229;-55
2022/01/22 02:47:58;;;;;;;8.20;7.60;;;4.30;43.90;;;;;;6278468;28;20318;-56
2022/01/22 02:51:01;;;;;;;7.73;7.03;;;4.30;44.00;;;;;;6292173;28;20299;-55
2022/01/22 02:54:05;;;;;;;7.07;6.67;;;4.70;44.00;;;;;;6279296;28;20230;-58
2022/01/22 02:57:08;;;;;;;8.00;7.40;;;4.40;43.60;;;;;;6285252;28;20372;-58
2022/01/22 03:00:14;;;;;;;6.83;6.43;;;4.50;43.60;;;;;;6285710;28;20298;-54
2022/01/22 03:03:17;;;;;;;7.07;6.57;;;4.50;43.70;;;;;;6281230;28;20259;-54
2022/01/22 03:06:20;;;;;;;7.17;6.77;;;4.40;43.60;;;;;;6286592;28;20241;-55
2022/01/22 03:09:28;;;;;;;6.97;6.40;;;4.40;43.90;;;;;;6272641;28;20355;-56
2022/01/22 03:12:51;;;;;;;7.13;6.50;;;4.50;43.50;;;;;;6284955;28;20284;-56
2022/01/22 03:16:01;;;;;;;7.00;6.50;;;4.30;43.10;;;;;;6291906;28;20243;-56
2022/01/22 03:19:10;;;;;;;6.40;6.00;;;4.20;43.40;;;;;;6285125;28;20252;-55
2022/01/22 03:22:17;;;;;;;5.93;5.53;;;4.40;42.20;;;;;;6284845;28;20234;-55
2022/01/22 03:28:53;;;;;;;6.17;5.87;;;4.30;40.60;;;;;;6289918;28;20239;-54
2022/01/22 03:31:56;;;;;;;5.60;5.30;;;4.40;39.50;;;;;;6296594;28;20241;-56
2022/01/22 03:35:08;;;;;;;4.93;4.73;;;4.40;38.70;;;;;;6290736;28;20318;-55
2022/01/22 03:38:11;;;;;;;6.00;5.70;;;4.40;39.10;;;;;;6296463;28;20247;-56
2022/01/22 03:41:16;;;;;;;5.57;5.33;;;4.40;39.50;;;;;;6292544;28;20827;-55
2022/01/22 03:44:19;;;;;;;6.00;5.60;;;4.10;40.30;;;;;;6286612;28;20587;-57
2022/01/22 03:47:22;;;;;;;5.80;5.50;;;4.00;39.80;;;;;;6288625;28;20287;-54
2022/01/22 03:50:26;;;;;;;6.07;5.67;;;4.30;40.70;;;;;;6289500;28;20334;-56
2022/01/22 03:53:29;;;;;;;6.37;5.87;;;4.20;40.60;;;;;;6288851;28;20286;-55
2022/01/22 03:56:33;;;;;;;6.60;6.10;;;4.00;41.40;;;;;;6285447;28;20237;-55
2022/01/22 03:59:36;;;;;;;6.03;5.73;;;4.00;41.40;;;;;;6288551;28;20288;-57
2022/01/22 04:06:21;;;;;;;6.50;6.00;;;4.10;42.00;;;;;;6287661;28;20279;-54
2022/01/22 04:09:28;;;;;;;6.33;5.90;;;3.60;41.60;;;;;;6288034;28;20754;-56
2022/01/22 04:12:40;;;;;;;6.40;6.00;;;3.90;42.00;;;;;;6298128;28;21007;-55
2022/01/22 04:15:43;;;;;;;6.47;5.93;;;3.90;42.50;;;;;;6294702;28;20225;-56
2022/01/22 04:25:29;;;;;;;6.13;5.73;;;3.60;41.80;;;;;;6285507;28;20391;-55
2022/01/22 04:28:33;;;;;;;6.27;5.63;;;3.50;41.70;;;;;;6282990;28;20718;-55
2022/01/22 04:31:36;;;;;;;6.20;5.77;;;3.80;41.70;;;;;;6277506;28;20411;-55
2022/01/22 04:34:39;;;;;;;6.27;5.87;;;3.40;41.00;;;;;;6286909;28;20740;-55
2022/01/22 04:37:42;;;;;;;7.00;6.50;;;3.50;41.20;;;;;;6281239;28;20321;-55
2022/01/22 04:40:44;;;;;;;6.90;6.30;;;3.50;41.20;;;;;;6282239;28;20352;-56
2022/01/22 04:43:56;;;;;;;6.00;5.47;;;3.80;41.40;;;;;;6286261;28;20234;-56
2022/01/22 04:47:13;;;;;;;6.67;6.10;;;3.80;41.00;;;;;;6283969;28;20231;-57
2022/01/22 04:56:56;;;;;;;6.83;5.80;;;3.80;41.00;;;;;;6290634;28;20783;-55
2022/01/22 05:00:01;;;;;;;5.83;5.43;;;3.80;40.90;;;;;;6293071;28;20306;-55
2022/01/22 05:03:04;;;;;;;5.57;5.27;;;3.80;41.20;;;;;;6288006;28;20797;-55
2022/01/22 05:06:07;;;;;;;6.50;5.90;;;3.70;42.10;;;;;;6280117;28;20702;-54
2022/01/22 05:09:10;;;;;;;6.10;5.50;;;3.80;41.20;;;;;;6279304;28;20388;-55
2022/01/22 05:12:13;;;;;;;5.20;5.00;;;3.70;40.90;;;;;;6280011;28;20319;-57
2022/01/22 05:15:18;;;;;;;5.90;5.50;;;3.50;40.30;;;;;;6281190;28;20253;-56
2022/01/22 05:18:20;;;;;;;5.93;5.53;;;3.50;40.30;;;;;;6292884;28;20263;-55
2022/01/22 05:21:24;;;;;;;5.37;5.07;;;3.50;39.60;;;;;;6285908;28;20279;-56
2022/01/22 05:24:31;;;;;;;6.33;5.83;;;3.50;39.50;;;;;;6279759;28;20244;-56
2022/01/22 05:27:51;;;;;;;5.77;5.40;;;3.70;39.00;;;;;;6282055;28;20307;-56
2022/01/22 05:31:05;;;;;;;6.83;5.33;;;3.60;38.80;;;;;;6286304;28;20255;-55
2022/01/22 05:37:28;;;;;;;5.03;4.70;;;3.40;38.60;;;;;;6274130;28;20281;-54
2022/01/22 05:40:32;;;;;;;6.07;5.57;;;3.50;38.70;;;;;;6286738;28;20308;-55
2022/01/22 05:43:34;;;;;;;5.13;4.83;;;3.50;38.40;;;;;;6289504;28;20279;-55
2022/01/22 05:46:39;;;;;;;6.10;5.70;;;3.20;37.80;;;;;;6291007;28;20943;-55
2022/01/22 05:49:46;;;;;;;6.63;5.60;;;3.30;37.70;;;;;;6287272;28;20241;-56
2022/01/22 05:52:56;;;;;;;5.73;5.40;;;3.50;38.20;;;;;;6293926;28;20611;-59
2022/01/22 05:59:38;;;;;;;5.77;5.10;;;3.10;38.30;;;;;;6283964;28;20249;-55
2022/01/22 06:02:42;;;;;;;5.70;5.33;;;3.20;37.60;;;;;;6281360;28;20248;-55
2022/01/22 06:05:45;;;;;;;7.17;5.47;;;3.10;38.50;;;;;;6284468;28;20602;-55
2022/01/22 06:08:52;;;;;;;6.00;5.50;;;3.10;38.50;;;;;;6283549;28;20239;-55
2022/01/22 06:11:58;;;;;;;6.63;6.07;;;2.90;38.30;;;;;;6286514;28;20237;-55
2022/01/22 06:15:00;;;;;;;8.03;5.77;;;3.30;38.80;;;;;;6285133;28;20797;-56
2022/01/22 06:18:05;;;;;;;5.90;5.37;;;2.90;38.20;;;;;;6285039;28;20336;-55
2022/01/22 06:21:09;;;;;;;5.90;5.33;;;3.10;38.40;;;;;;6290066;28;20324;-56
2022/01/22 06:24:12;;;;;;;6.47;5.73;;;3.00;37.30;;;;;;6285756;28;20315;-54
2022/01/22 06:27:15;;;;;;;6.00;5.47;;;2.90;37.70;;;;;;6279649;28;20303;-57
2022/01/22 06:30:19;;;;;;;6.33;5.60;;;3.10;37.80;;;;;;6288838;28;20339;-56
2022/01/22 06:33:23;;;;;;;6.20;5.60;;;3.00;38.50;;;;;;6278043;28;20944;-57
2022/01/22 06:36:27;;;;;;;6.57;5.83;;;3.10;38.40;;;;;;6282253;28;20237;-57
2022/01/22 06:39:40;;;;;;;6.30;5.63;;;3.20;38.60;;;;;;6277632;28;20286;-57
2022/01/22 06:42:41;;;;;;;6.57;6.07;;;2.50;37.90;;;;;;6273757;28;20233;-56
2022/01/22 06:45:48;;;;;;;6.43;6.00;;;3.10;38.50;;;;;;6281307;28;20925;-55
2022/01/22 06:48:53;;;;;;;6.33;5.80;;;2.80;38.20;;;;;;6284052;28;20248;-56
2022/01/22 06:51:55;;;;;;;7.37;6.70;;;2.80;38.20;;;;;;6286722;28;20264;-57
2022/01/22 06:54:58;;;;;;;8.07;5.73;;;2.80;38.20;;;;;;6281106;28;20233;-55
2022/01/22 06:58:01;;;;;;;7.50;5.97;;;2.80;38.20;;;;;;6295649;28;20626;-57
2022/01/22 07:01:03;;;;;;;6.83;6.10;;;2.80;38.20;;;;;;6279341;28;20997;-56
2022/01/22 07:04:08;;;;;;;5.70;5.40;;;2.60;38.00;;;;;;6286112;28;20228;-58
2022/01/22 07:07:12;;;;;;;6.77;6.20;;;2.80;38.20;;;;;;6281920;28;20235;-56
2022/01/22 07:10:15;;;;;;;6.80;6.00;;;2.70;38.20;;;;;;6281810;28;20374;-58
2022/01/22 07:13:17;;;;;;;6.83;6.13;;;2.60;38.00;;;;;;6283372;28;20564;-57
2022/01/22 07:16:20;;;;;;;6.60;5.93;;;2.70;38.60;;;;;;6285970;28;20244;-56
2022/01/22 07:19:24;;;;;;;7.83;5.67;;;2.60;38.00;;;;;;6286270;28;20719;-56
2022/01/22 07:22:35;;;;;;;8.93;5.80;;;2.80;37.80;;;;;;6289426;28;20285;-56
2022/01/22 07:25:38;;;;;;;8.47;6.27;;;2.70;37.40;;;;;;6278966;28;20371;-57
2022/01/22 07:28:41;;;;;;;6.47;5.97;;;2.70;36.80;;;;;;6289030;28;20864;-57
2022/01/22 07:31:44;;;;;;;6.60;5.87;;;2.90;36.80;;;;;;6279457;28;20241;-56
2022/01/22 07:34:48;;;;;;;7.27;5.60;;;2.80;36.40;;;;;;6279771;28;20372;-57
2022/01/22 07:37:51;;;;;;;8.43;5.70;;;3.00;36.70;;;;;;6287245;28;20300;-56
2022/01/22 07:40:53;;;;;;;6.50;5.90;;;2.90;36.60;;;;;;6279710;28;20226;-52
2022/01/22 07:43:57;;;;;;;8.03;6.47;;;3.20;36.20;;;;;;6281936;28;20316;-59
2022/01/22 07:47:01;;;;;;;6.37;5.97;;;3.30;35.50;;;;;;6283280;28;20614;-57
2022/01/22 07:50:07;;;;;;;7.90;6.00;;;3.30;34.50;;;;;;6284489;28;20391;-56
2022/01/22 07:53:09;;;;;;;6.63;6.13;;;3.10;34.80;;;;;;6287410;28;20713;-58
2022/01/22 07:56:12;;;;;;;6.63;6.00;;;3.40;34.60;;;;;;6286002;28;20298;-58
2022/01/22 07:59:15;;;;;;;6.83;6.43;;;3.20;34.10;;;;;;6291435;28;20236;-57
2022/01/22 08:02:18;;;;;;;6.13;5.73;;;3.20;33.80;;;;;;6280606;28;20481;-56
2022/01/22 08:05:23;;;;;;;6.57;6.07;;;3.20;34.50;;;;;;6283857;28;20248;-57
2022/01/22 08:08:26;;;;;;;6.60;6.00;;;3.10;33.90;;;;;;6269263;28;20641;-56
2022/01/22 08:11:29;;;;;;;6.73;6.33;;;3.30;33.90;;;;;;6287748;28;20245;-56
2022/01/22 08:14:31;;;;;;;7.03;6.47;;;3.50;34.40;;;;;;6289645;28;20307;-55
2022/01/22 08:17:34;;;;;;;6.50;6.03;;;3.30;33.60;;;;;;6290325;28;20222;-57
2022/01/22 08:20:38;;;;;;;7.20;6.53;;;3.30;33.70;;;;;;6292528;28;20247;-57
2022/01/22 08:23:41;;;;;;;7.30;6.80;;;3.10;33.20;;;;;;6289430;28;20263;-56
2022/01/22 08:26:47;;;;;;;6.77;6.13;;;3.10;33.80;;;;;;6286966;28;20291;-57
2022/01/22 08:29:50;;;;;;;7.93;6.20;;;3.20;34.00;;;;;;6288145;28;20229;-56
2022/01/22 08:33:08;;;;;;;7.00;6.40;;;3.20;34.30;;;;;;6281662;28;20238;-57
2022/01/22 08:36:11;;;;;;;9.03;6.20;;;3.00;34.20;;;;;;6277764;28;20458;-57
2022/01/22 08:39:16;;;;;;;7.50;6.03;;;3.10;33.30;;;;;;6280460;28;20547;-56
2022/01/22 08:42:19;;;;;;;6.50;6.00;;;3.20;33.50;;;;;;6281153;28;20548;-57
2022/01/22 08:45:22;;;;;;;9.93;6.13;;;3.10;34.50;;;;;;6285102;28;20303;-55
2022/01/22 08:48:25;;;;;;;8.80;6.40;;;3.20;33.70;;;;;;6279491;28;20526;-57
2022/01/22 08:51:29;;;;;;;7.37;6.17;;;3.60;34.60;;;;;;6288887;28;20241;-57
2022/01/22 08:54:31;;;;;;;6.13;5.53;;;3.80;33.50;;;;;;6292359;28;20342;-56
2022/01/22 08:57:34;;;;;;;6.13;5.63;;;3.80;29.70;;;;;;6289573;28;20294;-60
2022/01/22 09:00:39;;;;;;;6.53;6.00;;;4.10;30.00;;;;;;6284310;28;20871;-60
2022/01/22 09:03:42;;;;;;;5.70;5.30;;;4.10;26.90;;;;;;6286591;28;20866;-57
2022/01/22 09:06:47;;;;;;;7.90;5.77;;;4.10;26.10;;;;;;6287507;28;20282;-58
2022/01/22 09:09:50;;;;;;;5.77;5.40;;;4.10;27.20;;;;;;6284678;28;20324;-60
2022/01/22 09:12:53;;;;;;;9.20;5.90;;;4.20;26.70;;;;;;6282805;28;20324;-59
2022/01/22 09:15:56;;;;;;;6.10;5.50;;;3.90;25.40;;;;;;6289035;28;20593;-55
2022/01/22 09:19:05;;;;;;;6.07;5.63;;;4.10;25.80;;;;;;6283094;28;20331;-56
2022/01/22 09:22:09;;;;;;;7.17;5.63;;;4.10;25.50;;;;;;6282334;28;20233;-57
2022/01/22 09:25:15;;;;;;;5.50;5.10;;;3.80;25.50;;;;;;6287955;28;20739;-58
2022/01/22 09:28:18;;;;;;;5.93;5.53;;;4.00;23.70;;;;;;6290872;28;20233;-57
2022/01/22 09:31:20;;;;;;;6.13;5.60;;;4.20;24.00;;;;;;6286068;28;20302;-56
2022/01/22 09:34:23;;;;;;;6.00;5.40;;;4.20;24.40;;;;;;6281746;28;20594;-56
2022/01/22 09:37:27;;;;;;;6.43;4.73;;;4.20;24.20;;;;;;6289871;28;20728;-56
2022/01/22 09:40:31;;;;;;;7.70;5.03;;;4.00;19.70;;;;;;6288935;28;20618;-57
2022/01/22 09:43:34;;;;;;;5.70;5.20;;;4.40;18.90;;;;;;6290058;28;20748;-57
2022/01/22 09:46:38;;;;;;;5.63;5.10;;;4.20;21.80;;;;;;6286207;28;20225;-58
2022/01/22 09:49:41;;;;;;;6.20;5.20;;;4.30;21.70;;;;;;6279678;28;20237;-56
2022/01/22 09:52:45;;;;;;;6.10;4.40;;;4.40;20.50;;;;;;6284603;28;20364;-56
2022/01/22 09:55:48;;;;;;;4.90;4.50;;;4.20;14.40;;;;;;6287349;28;20275;-57
2022/01/22 09:58:51;;;;;;;4.43;4.03;;;4.30;12.30;;;;;;6292327;28;20371;-56
2022/01/22 10:02:07;;;;;;;4.37;4.07;;;4.50;11.80;;;;;;6290127;28;20422;-57
2022/01/22 10:05:29;;;;;;;4.00;3.90;;;4.40;7.90;;;;;;6289459;28;20648;-57
2022/01/22 10:08:36;;;;;;;4.87;4.53;;;4.40;6.50;;;;;;6292834;28;20370;-56
2022/01/22 10:11:38;;;;;;;4.83;4.20;;;4.50;9.40;;;;;;6285152;28;20225;-56
2022/01/22 10:15:05;;;;;;;4.60;4.20;;;4.40;9.30;;;;;;6292840;28;20237;-57
2022/01/22 10:18:09;;;;;;;4.70;4.37;;;4.30;10.60;;;;;;6292984;28;20233;-58
2022/01/22 10:21:14;;;;;;;5.33;4.87;;;4.20;11.60;;;;;;6287240;28;20239;-57
2022/01/22 10:24:37;;;;;;;4.70;4.47;;;4.50;12.30;;;;;;6283287;28;20235;-56
2022/01/22 10:27:45;;;;;;;5.70;4.70;;;4.50;10.70;;;;;;6286574;28;20240;-56
2022/01/22 10:30:52;;;;;;;4.90;4.50;;;4.40;12.60;;;;;;6288568;28;20238;-56
2022/01/22 10:34:06;;;;;;;5.53;5.03;;;4.50;10.70;;;;;;6277512;28;20230;-55
2022/01/22 10:37:08;;;;;;;6.03;4.73;;;4.70;9.40;;;;;;6288107;28;20295;-56
2022/01/22 10:40:21;;;;;;;5.20;5.00;;;4.90;4.80;;;;;;6286418;28;20216;-57
2022/01/22 10:43:29;;;;;;;6.30;5.10;;;4.80;5.10;;;;;;6281591;28;20240;-58
2022/01/22 10:46:44;;;;;;;5.30;5.00;;;4.80;1.00;;;;;;6290877;28;20221;-57
2022/01/22 10:49:47;;;;;;;5.33;5.00;;;4.50;4.10;;;;;;6287300;28;20347;-57
2022/01/22 10:52:52;;;;;;;6.20;4.70;;;5.00;4.60;;;;;;6287408;28;20237;-57
2022/01/22 10:56:04;;;;;;;5.23;4.87;;;4.70;3.70;;;;;;6293354;28;20649;-58
2022/01/22 10:59:08;;;;;;;4.83;4.50;;;4.70;5.40;;;;;;6287132;28;20249;-57
2022/01/22 11:02:12;;;;;;;4.50;4.40;;;5.00;5.40;;;;;;6273016;28;20236;-56
2022/01/22 11:05:34;;;;;;;5.67;4.80;;;4.90;2.80;;;;;;6286710;28;20320;-57
2022/01/22 11:08:37;;;;;;;4.57;4.37;;;4.80;2.90;;;;;;6290478;28;20312;-58
2022/01/22 11:11:42;;;;;;;6.13;4.43;;;5.10;1.50;;;;;;6282525;28;20245;-56
2022/01/22 11:14:46;;;;;;;4.77;4.47;;;5.10;1.00;;;;;;6289407;28;20364;-56
2022/01/22 11:17:49;;;;;;;4.47;4.23;;;5.20;1.00;;;;;;6292165;28;20320;-58
2022/01/22 11:20:53;;;;;;;5.37;5.00;;;5.40;1.00;;;;;;6285595;28;20229;-56
2022/01/22 11:23:56;;;;;;;6.63;4.60;;;5.50;1.00;;;;;;6285034;28;20502;-59
2022/01/22 11:27:02;;;;;;;5.60;4.80;;;5.50;1.00;;;;;;6289723;28;20431;-57
2022/01/22 11:30:08;;;;;;;5.47;4.87;;;5.50;1.00;;;;;;6290705;28;20583;-54
2022/01/22 11:33:15;;;;;;;6.60;4.90;;;5.60;1.00;;;;;;6280913;28;20270;-57
2022/01/22 11:36:23;;;;;;;5.97;5.20;;;5.20;1.00;;;;;;6285176;28;20234;-58
2022/01/22 11:39:28;;;;;;;5.37;4.97;;;5.00;1.00;;;;;;6289062;28;20367;-57
2022/01/22 11:46:20;;;;;;;5.10;4.70;;;5.10;1.00;;;;;;6258611;28;20578;-56
2022/01/22 11:49:26;;;;;;;4.70;4.40;;;5.10;1.00;;;;;;6248596;28;20513;-57
2022/01/22 11:52:32;;;;;;;5.10;4.80;;;5.20;1.00;;;;;;6233898;28;20755;-58
2022/01/22 11:55:35;;;;;;;4.80;4.43;;;5.30;1.00;;;;;;6235573;28;20234;-57
2022/01/22 11:59:15;;;;;;;5.37;4.90;;;5.30;1.00;;;;;;6229597;28;20325;-56
2022/01/22 12:02:19;;;;;;;4.50;4.30;;;5.30;1.00;;;;;;6232114;28;20461;-57
2022/01/22 12:05:22;;;;;;;4.43;4.23;;;5.30;1.00;;;;;;6241026;28;20242;-56
2022/01/22 12:08:25;;;;;;;5.40;4.90;;;5.40;1.00;;;;;;6240353;28;20233;-56
2022/01/22 12:15:06;;;;;;;5.87;4.70;;;5.20;1.00;;;;;;6250204;28;20261;-57
2022/01/22 12:18:14;;;;;;;4.80;4.50;;;5.60;1.00;;;;;;6238226;28;21027;-58
2022/01/22 12:21:35;;;;;;;5.03;4.67;;;5.40;1.00;;;;;;6237538;28;20719;-57
2022/01/22 12:24:38;;;;;;;4.57;4.27;;;5.30;1.00;;;;;;6247638;28;20266;-56
2022/01/22 12:27:42;;;;;;;4.60;4.40;;;5.10;1.00;;;;;;6243866;28;20276;-58
2022/01/22 12:30:48;;;;;;;4.57;4.27;;;5.20;1.00;;;;;;6243014;28;20314;-58
2022/01/22 12:33:54;;;;;;;5.30;4.87;;;5.50;1.00;;;;;;6242861;28;20241;-57
2022/01/22 12:37:17;;;;;;;4.53;4.23;;;5.10;1.00;;;;;;6241287;28;20259;-59
2022/01/22 12:40:34;;;;;;;5.53;4.30;;;5.30;1.00;;;;;;6246882;28;20326;-58
2022/01/22 12:43:37;;;;;;;4.93;4.30;;;5.30;1.00;;;;;;6241905;28;20240;-58
2022/01/22 12:46:41;;;;;;;4.13;4.03;;;5.20;1.00;;;;;;6243404;28;20242;-58
2022/01/22 12:49:46;;;;;;;5.10;4.40;;;5.20;1.00;;;;;;6249566;28;20847;-57
2022/01/22 12:52:51;;;;;;;4.33;4.10;;;5.40;1.00;;;;;;6232133;28;20236;-56
2022/01/22 12:56:25;;;;;;;4.13;4.00;;;5.20;1.00;;;;;;6235955;28;20310;-56
2022/01/22 12:59:26;;;;;;;4.30;4.00;;;5.10;1.00;;;;;;6218496;28;20288;-57
2022/01/22 13:02:39;;;;;;;4.27;3.97;;;4.90;1.00;;;;;;6235705;28;20242;-58
2022/01/22 13:05:47;;;;;;;4.27;4.00;;;5.00;1.00;;;;;;6265987;28;20818;-56
2022/01/22 13:08:57;;;;;;;4.80;4.43;;;4.90;1.00;;;;;;6280241;28;20252;-57
2022/01/22 13:12:00;;;;;;;4.57;4.37;;;4.90;1.00;;;;;;6279426;28;20760;-56
2022/01/22 13:15:03;;;;;;;9.57;4.70;;;4.80;1.00;;;;;;6275528;28;20240;-56
2022/01/22 13:18:07;;;;;;;5.23;4.20;;;4.90;1.00;;;;;;6284647;28;20469;-57
2022/01/22 13:21:12;;;;;;;5.53;4.23;;;4.90;1.00;;;;;;6279656;28;20243;-56
2022/01/22 13:24:15;;;;;;;4.70;4.40;;;5.00;1.00;;;;;;6277394;28;20258;-56
2022/01/22 13:27:20;;;;;;;6.50;5.23;;;5.00;1.00;;;;;;6277001;28;20610;-57
2022/01/22 13:30:29;;;;;;;5.40;5.10;;;5.00;1.00;;;;;;6282443;28;20323;-56
2022/01/22 13:33:40;;;;;;;5.97;5.43;;;5.00;1.00;;;;;;6269326;28;20229;-57
2022/01/22 13:36:55;;;;;;;7.83;5.10;;;4.80;1.00;;;;;;6278791;28;20456;-56
2022/01/22 13:40:24;;;;;;;7.70;5.60;;;4.80;1.00;;;;;;6268303;28;20328;-57
2022/01/22 13:50:12;;;;;;;5.90;5.40;;;4.50;1.00;;;;;;6281370;28;20315;-57
2022/01/22 13:53:17;;;;;;;6.07;5.67;;;4.80;1.00;;;;;;6278155;28;20237;-56
2022/01/22 13:56:21;;;;;;;5.90;5.33;;;4.70;1.00;;;;;;6278797;28;20243;-58
2022/01/22 13:59:27;;;;;;;8.47;5.50;;;4.90;1.00;;;;;;6274975;28;20473;-56
2022/01/22 14:02:48;;;;;;;5.30;5.03;;;4.90;1.00;;;;;;6271286;28;20242;-56
2022/01/22 14:05:52;;;;;;;5.87;4.93;;;4.20;1.00;;;;;;6272694;28;20241;-56
2022/01/22 14:08:56;;;;;;;5.00;4.70;;;4.80;1.00;;;;;;6274670;28;20233;-57
2022/01/22 14:12:11;;;;;;;7.27;4.73;;;4.70;1.00;;;;;;6262726;28;20844;-56
2022/01/22 14:15:17;;;;;;;5.73;5.13;;;4.70;1.00;;;;;;6272024;28;20266;-57
2022/01/22 14:18:22;;;;;;;5.47;5.00;;;4.30;1.00;;;;;;6281454;28;20307;-57
2022/01/22 14:21:26;;;;;;;5.63;5.17;;;4.70;1.00;;;;;;6277656;28;20320;-56
2022/01/22 14:24:31;;;;;;;5.27;4.97;;;4.40;1.00;;;;;;6277493;28;20428;-55
2022/01/22 14:27:34;;;;;;;5.57;5.00;;;4.60;1.00;;;;;;6279816;28;20317;-58
2022/01/22 14:30:40;;;;;;;5.80;5.30;;;4.70;1.00;;;;;;6275945;28;20319;-57
2022/01/22 14:33:43;;;;;;;5.77;5.33;;;4.40;1.00;;;;;;6272683;28;20230;-58
2022/01/22 14:36:47;;;;;;;4.97;4.67;;;4.60;1.00;;;;;;6282865;28;20225;-57
2022/01/22 14:46:45;;;;;;;5.07;4.80;;;4.50;1.00;;;;;;6264529;28;20232;-57
2022/01/22 14:49:50;;;;;;;5.50;5.00;;;4.60;1.00;;;;;;6270677;28;20233;-58
2022/01/22 14:52:54;;;;;;;5.53;5.00;;;4.80;1.00;;;;;;6269074;28;20333;-57
2022/01/22 14:56:02;;;;;;;5.77;4.87;;;4.60;1.00;;;;;;6268498;28;20327;-57
2022/01/22 14:59:04;;;;;;;5.43;4.70;;;4.70;1.00;;;;;;6272794;28;20229;-58
2022/01/22 15:02:09;;;;;;;5.70;5.30;;;4.40;1.00;;;;;;6271004;28;20237;-57
2022/01/22 15:05:14;;;;;;;7.33;4.93;;;4.40;1.00;;;;;;6270788;28;20238;-58
2022/01/22 15:08:16;;;;;;;5.33;5.00;;;4.40;1.00;;;;;;6280107;28;20448;-57
2022/01/22 15:11:21;;;;;;;5.43;4.93;;;4.60;1.00;;;;;;6276678;28;20245;-56
2022/01/22 15:14:26;;;;;;;4.80;4.40;;;4.50;1.00;;;;;;6274285;28;20624;-58
2022/01/22 15:17:53;;;;;;;5.23;5.03;;;4.50;1.00;;;;;;6281171;28;20290;-60
2022/01/22 15:20:56;;;;;;;4.70;4.40;;;4.20;1.00;;;;;;6277697;28;20717;-58
2022/01/22 15:23:59;;;;;;;4.70;4.47;;;4.40;1.00;;;;;;6278078;28;20329;-56
2022/01/22 15:27:03;;;;;;;7.63;5.30;;;4.00;1.00;;;;;;6272450;28;20379;-56
2022/01/22 15:30:20;;;;;;;5.50;5.20;;;4.00;1.00;;;;;;6274277;28;20241;-56
2022/01/22 15:33:34;;;;;;;7.63;5.30;;;4.10;1.00;;;;;;6274978;28;20395;-56
2022/01/22 15:36:38;;;;;;;5.20;5.00;;;4.10;1.00;;;;;;6281534;28;20348;-57
2022/01/22 15:39:41;;;;;;;5.63;5.00;;;4.30;1.00;;;;;;6270785;28;20613;-57
2022/01/22 15:42:45;;;;;;;5.40;4.97;;;3.80;1.00;;;;;;6282527;28;20725;-58
2022/01/22 15:45:48;;;;;;;5.40;5.00;;;4.00;1.00;;;;;;6279864;28;20233;-58
2022/01/22 15:48:51;;;;;;;6.47;5.97;;;4.10;1.00;;;;;;6277703;28;20414;-58
2022/01/22 15:51:56;;;;;;;5.53;5.13;;;4.00;1.00;;;;;;6279349;28;20233;-57
2022/01/22 15:54:59;;;;;;;5.20;5.00;;;3.80;1.00;;;;;;6270965;28;20320;-58
2022/01/22 15:58:04;;;;;;;6.40;5.90;;;4.00;1.00;;;;;;6274741;28;20328;-57
2022/01/22 16:01:09;;;;;;;6.00;5.67;;;3.80;1.00;;;;;;6280550;28;20291;-57
2022/01/22 16:04:13;;;;;;;6.93;5.83;;;4.00;1.00;;;;;;6271131;28;20245;-59
2022/01/22 16:07:20;;;;;;;6.70;5.77;;;4.10;1.00;;;;;;6279351;28;20726;-56
2022/01/22 16:10:41;;;;;;;5.40;5.00;;;4.00;1.00;;;;;;6281039;28;20308;-56
2022/01/22 16:13:45;;;;;;;5.33;5.13;;;3.90;1.00;;;;;;6268083;28;20385;-57
2022/01/22 16:16:49;;;;;;;6.23;5.50;;;4.00;1.00;;;;;;6269991;28;20276;-58
2022/01/22 16:19:52;;;;;;;10.33;6.17;;;4.00;1.00;;;;;;6269275;28;20456;-58
2022/01/22 16:22:55;;;;;;;6.57;6.07;;;3.90;1.00;;;;;;6270214;28;20320;-57
2022/01/22 16:25:58;;;;;;;6.87;6.30;;;3.70;1.00;;;;;;6269797;28;20240;-57
2022/01/22 16:29:02;;;;;;;6.83;6.43;;;3.90;1.00;;;;;;6273302;28;20237;-56
2022/01/22 16:32:05;;;;;;;7.17;6.47;;;4.10;1.00;;;;;;6268987;28;20258;-58
2022/01/22 16:35:09;;;;;;;7.60;7.00;;;4.20;1.00;;;;;;6281925;28;20748;-57
2022/01/22 16:38:12;;;;;;;8.80;6.30;;;4.10;1.00;;;;;;6281520;28;20253;-57
2022/01/22 16:41:15;;;;;;;6.57;6.07;;;4.10;1.00;;;;;;6269589;28;20743;-51
2022/01/22 16:44:24;;;;;;;7.30;6.60;;;4.10;1.00;;;;;;6272939;28;20290;-56
2022/01/22 16:54:40;;;;;;;6.17;5.77;;;4.10;1.00;;;;;;6275827;28;20372;-56
2022/01/22 16:57:45;;;;;;;6.10;5.57;;;4.10;1.00;;;;;;6281556;28;20299;-59
2022/01/22 17:00:57;;;;;;;6.53;5.93;;;3.90;1.00;;;;;;6284441;28;20314;-57
2022/01/22 17:04:01;;;;;;;5.80;5.47;;;4.10;1.00;;;;;;6280651;28;20229;-56
2022/01/22 17:07:05;;;;;;;6.47;5.97;;;3.90;1.00;;;;;;6271046;28;20247;-55
2022/01/22 17:10:18;;;;;;;6.70;5.93;;;4.10;1.00;;;;;;6271960;28;20311;-56
2022/01/22 17:16:43;;;;;;;9.13;7.50;;;4.00;1.00;;;;;;6273514;28;20349;-56
2022/01/22 17:19:45;;;;;;;11.23;7.53;;;3.80;1.00;;;;;;6263297;28;20287;-56
2022/01/22 17:22:48;;;;;;;10.83;8.07;;;4.20;1.00;;;;;;6278038;28;20239;-57
2022/01/22 17:25:51;;;;;;;10.43;7.33;;;4.00;1.00;;;;;;6275444;28;20451;-56
2022/01/22 17:28:54;;;;;;;9.20;7.80;;;3.80;1.00;;;;;;6276065;28;20450;-58
2022/01/22 17:31:58;;;;;;;8.50;7.70;;;3.90;1.00;;;;;;6266916;28;20320;-57
2022/01/22 17:35:01;;;;;;;10.47;8.43;;;3.90;1.00;;;;;;6274460;28;20325;-57
2022/01/22 17:38:09;;;;;;;9.43;8.47;;;4.10;1.00;;;;;;6273014;28;20777;-57
2022/01/22 17:41:15;;;;;;;10.13;9.13;;;4.20;1.00;;;;;;6279742;28;20237;-56
2022/01/22 17:44:20;;;;;;;9.27;8.30;;;4.20;1.00;;;;;;6273698;28;20321;-56
2022/01/22 17:47:24;;;;;;;11.90;8.00;;;4.20;1.00;;;;;;6270946;28;20604;-58
2022/01/22 17:50:27;;;;;;;8.83;7.90;;;4.10;1.00;;;;;;6280205;28;20528;-57
2022/01/22 17:53:31;;;;;;;8.70;7.37;;;4.10;1.00;;;;;;6276655;28;20248;-56